sensor_id;sensor_type;location;lat;lon;timestamp;temperature;humidity
21635;DHT22;10979;48.306;9.830;2022-11-18T00:00:54;7.50;99.90
21635;DHT22;10979;48.306;9.830;2022-11-18T00:03:20;7.50;99.90
21635;DHT22;10979;48.306;9.830;2022-11-18T00:05:53;7.50;99.90
21635;DHT22;10979;48.306;9.830;2022-11-18T00:08:19;7.60;99.90
21635;DHT22;10979;48.306;9.830;2022-11-18T00:10:44;7.60;99.90
21635;DHT22;10979;48.306;9.830;2022-11-18T00:13:13;7.50;99.90
21635;DHT22;10979;48.306;9.830;2022-11-18T00:16:06;7.50;99.90
21635;DHT22;10979;48.306;9.830;2022-11-18T00:18:32;7.50;99.90
21635;DHT22;10979;48.306;9.830;2022-11-18T00:21:16;7.50;99.90
21635;DHT22;10979;48.306;9.830;2022-11-18T00:23:42;7.50;99.90
21635;DHT22;10979;48.306;9.830;2022-11-18T00:26:12;7.50;99.90
21635;DHT22;10979;48.306;9.830;2022-11-18T00:28:38;7.50;99.90
21635;DHT22;10979;48.306;9.830;2022-11-18T00:31:07;7.40;99.90
21635;DHT22;10979;48.306;9.830;2022-11-18T00:33:33;7.40;99.90
21635;DHT22;10979;48.306;9.830;2022-11-18T00:35:59;7.40;99.90
21635;DHT22;10979;48.306;9.830;2022-11-18T00:38:25;7.40;99.90
21635;DHT22;10979;48.306;9.830;2022-11-18T00:41:05;7.40;99.90
21635;DHT22;10979;48.306;9.830;2022-11-18T00:43:32;7.40;99.90
21635;DHT22;10979;48.306;9.830;2022-11-18T00:45:59;7.30;99.90
21635;DHT22;10979;48.306;9.830;2022-11-18T00:48:24;7.40;99.90
21635;DHT22;10979;48.306;9.830;2022-11-18T00:50:52;7.40;99.90
21635;DHT22;10979;48.306;9.830;2022-11-18T00:53:19;7.40;99.90
21635;DHT22;10979;48.306;9.830;2022-11-18T00:55:45;7.40;99.90
21635;DHT22;10979;48.306;9.830;2022-11-18T00:58:10;7.40;99.90
21635;DHT22;10979;48.306;9.830;2022-11-18T01:00:40;7.40;99.90
21635;DHT22;10979;48.306;9.830;2022-11-18T01:03:06;7.40;99.90
21635;DHT22;10979;48.306;9.830;2022-11-18T01:05:32;7.40;99.90
21635;DHT22;10979;48.306;9.830;2022-11-18T01:07:58;7.40;99.90
21635;DHT22;10979;48.306;9.830;2022-11-18T01:10:23;7.40;99.90
21635;DHT22;10979;48.306;9.830;2022-11-18T01:12:49;7.40;99.90
21635;DHT22;10979;48.306;9.830;2022-11-18T01:15:41;7.40;99.90
21635;DHT22;10979;48.306;9.830;2022-11-18T01:18:07;7.40;99.90
21635;DHT22;10979;48.306;9.830;2022-11-18T01:20:34;7.40;99.90
21635;DHT22;10979;48.306;9.830;2022-11-18T01:22:59;7.40;99.90
21635;DHT22;10979;48.306;9.830;2022-11-18T01:25:26;7.30;99.90
21635;DHT22;10979;48.306;9.830;2022-11-18T01:27:51;7.30;99.90
21635;DHT22;10979;48.306;9.830;2022-11-18T01:30:17;7.30;99.90
21635;DHT22;10979;48.306;9.830;2022-11-18T01:32:43;7.20;99.90
21635;DHT22;10979;48.306;9.830;2022-11-18T01:35:09;7.20;99.90
21635;DHT22;10979;48.306;9.830;2022-11-18T01:37:35;7.20;99.90
21635;DHT22;10979;48.306;9.830;2022-11-18T01:40:01;7.30;99.90
21635;DHT22;10979;48.306;9.830;2022-11-18T01:42:26;7.30;99.90
21635;DHT22;10979;48.306;9.830;2022-11-18T01:45:26;7.30;99.90
21635;DHT22;10979;48.306;9.830;2022-11-18T01:47:58;7.30;99.90
21635;DHT22;10979;48.306;9.830;2022-11-18T01:50:25;7.20;99.90
21635;DHT22;10979;48.306;9.830;2022-11-18T01:52:54;7.20;99.90
21635;DHT22;10979;48.306;9.830;2022-11-18T01:55:27;7.20;99.90
21635;DHT22;10979;48.306;9.830;2022-11-18T01:58:02;7.20;99.90
21635;DHT22;10979;48.306;9.830;2022-11-18T02:00:30;7.20;99.90
21635;DHT22;10979;48.306;9.830;2022-11-18T02:02:56;7.30;99.90
21635;DHT22;10979;48.306;9.830;2022-11-18T02:05:23;7.20;99.90
21635;DHT22;10979;48.306;9.830;2022-11-18T02:07:50;7.20;99.90
21635;DHT22;10979;48.306;9.830;2022-11-18T02:10:22;7.20;99.90
21635;DHT22;10979;48.306;9.830;2022-11-18T02:12:49;7.20;99.90
21635;DHT22;10979;48.306;9.830;2022-11-18T02:15:15;7.20;99.90
21635;DHT22;10979;48.306;9.830;2022-11-18T02:17:57;7.20;99.90
21635;DHT22;10979;48.306;9.830;2022-11-18T02:20:43;7.20;99.90
21635;DHT22;10979;48.306;9.830;2022-11-18T02:26:15;7.20;99.90
21635;DHT22;10979;48.306;9.830;2022-11-18T02:31:32;7.20;99.90
21635;DHT22;10979;48.306;9.830;2022-11-18T02:34:09;7.20;99.90
21635;DHT22;10979;48.306;9.830;2022-11-18T02:39:20;7.20;99.90
21635;DHT22;10979;48.306;9.830;2022-11-18T02:41:48;7.20;99.90
21635;DHT22;10979;48.306;9.830;2022-11-18T02:44:18;7.20;99.90
21635;DHT22;10979;48.306;9.830;2022-11-18T02:46:50;7.20;99.90
21635;DHT22;10979;48.306;9.830;2022-11-18T02:49:41;7.20;99.90
21635;DHT22;10979;48.306;9.830;2022-11-18T02:52:09;7.20;99.90
21635;DHT22;10979;48.306;9.830;2022-11-18T02:54:39;7.30;99.90
21635;DHT22;10979;48.306;9.830;2022-11-18T02:57:05;7.30;99.90
21635;DHT22;10979;48.306;9.830;2022-11-18T02:59:32;7.30;99.90
21635;DHT22;10979;48.306;9.830;2022-11-18T03:01:58;7.30;99.90
21635;DHT22;10979;48.306;9.830;2022-11-18T03:04:25;7.30;99.90
21635;DHT22;10979;48.306;9.830;2022-11-18T03:07:13;7.30;99.90
21635;DHT22;10979;48.306;9.830;2022-11-18T03:09:43;7.30;99.90
21635;DHT22;10979;48.306;9.830;2022-11-18T03:12:42;7.30;99.90
21635;DHT22;10979;48.306;9.830;2022-11-18T03:18:19;7.20;99.90
21635;DHT22;10979;48.306;9.830;2022-11-18T03:20:56;7.20;99.90
21635;DHT22;10979;48.306;9.830;2022-11-18T03:23:43;7.20;99.90
21635;DHT22;10979;48.306;9.830;2022-11-18T03:26:15;7.20;99.90
21635;DHT22;10979;48.306;9.830;2022-11-18T03:28:52;7.30;99.90
21635;DHT22;10979;48.306;9.830;2022-11-18T03:31:26;7.30;99.90
21635;DHT22;10979;48.306;9.830;2022-11-18T03:33:58;7.30;99.90
21635;DHT22;10979;48.306;9.830;2022-11-18T03:36:28;7.40;99.90
21635;DHT22;10979;48.306;9.830;2022-11-18T03:38:58;7.40;99.90
21635;DHT22;10979;48.306;9.830;2022-11-18T03:41:27;7.50;99.90
21635;DHT22;10979;48.306;9.830;2022-11-18T03:44:00;7.50;99.90
21635;DHT22;10979;48.306;9.830;2022-11-18T03:46:35;7.50;99.90
21635;DHT22;10979;48.306;9.830;2022-11-18T03:49:04;7.60;99.90
21635;DHT22;10979;48.306;9.830;2022-11-18T03:51:35;7.60;99.90
21635;DHT22;10979;48.306;9.830;2022-11-18T03:54:22;7.60;99.90
21635;DHT22;10979;48.306;9.830;2022-11-18T03:56:57;7.60;99.90
21635;DHT22;10979;48.306;9.830;2022-11-18T03:59:35;7.50;99.90
21635;DHT22;10979;48.306;9.830;2022-11-18T04:02:08;7.50;99.90
21635;DHT22;10979;48.306;9.830;2022-11-18T04:04:35;7.50;99.90
21635;DHT22;10979;48.306;9.830;2022-11-18T04:07:22;7.40;99.90
21635;DHT22;10979;48.306;9.830;2022-11-18T04:12:34;7.40;99.90
21635;DHT22;10979;48.306;9.830;2022-11-18T04:15:02;7.30;99.90
21635;DHT22;10979;48.306;9.830;2022-11-18T04:17:28;7.30;99.90
21635;DHT22;10979;48.306;9.830;2022-11-18T04:19:54;7.20;99.90
21635;DHT22;10979;48.306;9.830;2022-11-18T04:22:20;7.20;99.90
21635;DHT22;10979;48.306;9.830;2022-11-18T04:24:46;7.20;99.90
21635;DHT22;10979;48.306;9.830;2022-11-18T04:27:12;7.20;99.90
21635;DHT22;10979;48.306;9.830;2022-11-18T04:29:37;7.20;99.90
21635;DHT22;10979;48.306;9.830;2022-11-18T04:32:03;7.10;99.90
21635;DHT22;10979;48.306;9.830;2022-11-18T04:34:29;7.10;99.90
21635;DHT22;10979;48.306;9.830;2022-11-18T04:36:56;7.10;99.90
21635;DHT22;10979;48.306;9.830;2022-11-18T04:39:22;7.10;99.90
21635;DHT22;10979;48.306;9.830;2022-11-18T04:41:47;7.10;99.90
21635;DHT22;10979;48.306;9.830;2022-11-18T04:44:27;7.10;99.90
21635;DHT22;10979;48.306;9.830;2022-11-18T04:46:53;7.00;99.90
21635;DHT22;10979;48.306;9.830;2022-11-18T04:49:20;7.00;99.90
21635;DHT22;10979;48.306;9.830;2022-11-18T04:51:46;6.90;99.90
21635;DHT22;10979;48.306;9.830;2022-11-18T04:54:12;6.90;99.90
21635;DHT22;10979;48.306;9.830;2022-11-18T04:56:38;6.90;99.90
21635;DHT22;10979;48.306;9.830;2022-11-18T04:59:04;6.90;99.90
21635;DHT22;10979;48.306;9.830;2022-11-18T05:01:31;6.80;99.90
21635;DHT22;10979;48.306;9.830;2022-11-18T05:03:58;6.80;99.90
21635;DHT22;10979;48.306;9.830;2022-11-18T05:06:24;6.80;99.90
21635;DHT22;10979;48.306;9.830;2022-11-18T05:08:49;6.90;99.90
21635;DHT22;10979;48.306;9.830;2022-11-18T05:11:15;6.80;99.90
21635;DHT22;10979;48.306;9.830;2022-11-18T05:13:59;6.70;99.90
21635;DHT22;10979;48.306;9.830;2022-11-18T05:16:25;6.70;99.90
21635;DHT22;10979;48.306;9.830;2022-11-18T05:18:50;6.80;99.90
21635;DHT22;10979;48.306;9.830;2022-11-18T05:21:16;6.90;99.90
21635;DHT22;10979;48.306;9.830;2022-11-18T05:23:42;6.90;99.90
21635;DHT22;10979;48.306;9.830;2022-11-18T05:26:09;6.80;99.90
21635;DHT22;10979;48.306;9.830;2022-11-18T05:28:35;6.90;99.90
21635;DHT22;10979;48.306;9.830;2022-11-18T05:31:09;6.90;99.90
21635;DHT22;10979;48.306;9.830;2022-11-18T05:33:35;6.90;99.90
21635;DHT22;10979;48.306;9.830;2022-11-18T05:36:27;6.90;99.90
21635;DHT22;10979;48.306;9.830;2022-11-18T05:38:52;6.90;99.90
21635;DHT22;10979;48.306;9.830;2022-11-18T05:41:18;6.90;99.90
21635;DHT22;10979;48.306;9.830;2022-11-18T05:44:03;6.80;99.90
21635;DHT22;10979;48.306;9.830;2022-11-18T05:46:29;6.80;99.90
21635;DHT22;10979;48.306;9.830;2022-11-18T05:48:55;6.80;99.90
21635;DHT22;10979;48.306;9.830;2022-11-18T05:51:21;6.80;99.90
21635;DHT22;10979;48.306;9.830;2022-11-18T05:53:48;6.80;99.90
21635;DHT22;10979;48.306;9.830;2022-11-18T05:56:27;6.80;99.90
21635;DHT22;10979;48.306;9.830;2022-11-18T05:58:53;6.80;99.90
21635;DHT22;10979;48.306;9.830;2022-11-18T06:01:25;6.80;99.90
21635;DHT22;10979;48.306;9.830;2022-11-18T06:03:54;6.80;99.90
21635;DHT22;10979;48.306;9.830;2022-11-18T06:06:20;6.70;99.90
21635;DHT22;10979;48.306;9.830;2022-11-18T06:08:55;6.70;99.90
21635;DHT22;10979;48.306;9.830;2022-11-18T06:11:21;6.70;99.90
21635;DHT22;10979;48.306;9.830;2022-11-18T06:14:04;6.70;99.90
21635;DHT22;10979;48.306;9.830;2022-11-18T06:16:31;6.70;99.90
21635;DHT22;10979;48.306;9.830;2022-11-18T06:18:57;6.70;99.90
21635;DHT22;10979;48.306;9.830;2022-11-18T06:21:23;6.70;99.90
21635;DHT22;10979;48.306;9.830;2022-11-18T06:23:49;6.70;99.90
21635;DHT22;10979;48.306;9.830;2022-11-18T06:26:15;6.70;99.90
21635;DHT22;10979;48.306;9.830;2022-11-18T06:28:43;6.70;99.90
21635;DHT22;10979;48.306;9.830;2022-11-18T06:31:09;6.70;99.90
21635;DHT22;10979;48.306;9.830;2022-11-18T06:33:35;6.70;99.90
21635;DHT22;10979;48.306;9.830;2022-11-18T06:36:00;6.70;99.90
21635;DHT22;10979;48.306;9.830;2022-11-18T06:38:26;6.70;99.90
21635;DHT22;10979;48.306;9.830;2022-11-18T06:40:51;6.70;99.90
21635;DHT22;10979;48.306;9.830;2022-11-18T06:43:17;6.70;99.90
21635;DHT22;10979;48.306;9.830;2022-11-18T06:46:02;6.60;99.90
21635;DHT22;10979;48.306;9.830;2022-11-18T06:48:47;6.70;99.90
21635;DHT22;10979;48.306;9.830;2022-11-18T06:51:12;6.70;99.90
21635;DHT22;10979;48.306;9.830;2022-11-18T06:53:38;6.60;99.90
21635;DHT22;10979;48.306;9.830;2022-11-18T06:56:06;6.60;99.90
21635;DHT22;10979;48.306;9.830;2022-11-18T06:58:32;6.70;99.90
21635;DHT22;10979;48.306;9.830;2022-11-18T07:01:08;6.70;99.90
21635;DHT22;10979;48.306;9.830;2022-11-18T07:03:34;6.70;99.90
21635;DHT22;10979;48.306;9.830;2022-11-18T07:05:59;6.70;99.90
21635;DHT22;10979;48.306;9.830;2022-11-18T07:08:25;6.80;99.90
21635;DHT22;10979;48.306;9.830;2022-11-18T07:10:52;6.80;99.90
21635;DHT22;10979;48.306;9.830;2022-11-18T07:13:17;6.80;99.90
21635;DHT22;10979;48.306;9.830;2022-11-18T07:15:43;6.90;99.90
21635;DHT22;10979;48.306;9.830;2022-11-18T07:18:08;6.80;99.90
21635;DHT22;10979;48.306;9.830;2022-11-18T07:20:34;6.70;99.90
21635;DHT22;10979;48.306;9.830;2022-11-18T07:22:59;6.70;99.90
21635;DHT22;10979;48.306;9.830;2022-11-18T07:25:25;6.70;99.90
21635;DHT22;10979;48.306;9.830;2022-11-18T07:27:50;6.70;99.90
21635;DHT22;10979;48.306;9.830;2022-11-18T07:30:16;6.70;99.90
21635;DHT22;10979;48.306;9.830;2022-11-18T07:32:42;6.80;99.90
21635;DHT22;10979;48.306;9.830;2022-11-18T07:35:07;6.70;99.90
21635;DHT22;10979;48.306;9.830;2022-11-18T07:37:33;6.80;99.90
21635;DHT22;10979;48.306;9.830;2022-11-18T07:39:59;6.70;99.90
21635;DHT22;10979;48.306;9.830;2022-11-18T07:42:24;6.90;99.90
21635;DHT22;10979;48.306;9.830;2022-11-18T07:44:50;6.90;99.90
21635;DHT22;10979;48.306;9.830;2022-11-18T07:47:16;7.00;99.90
21635;DHT22;10979;48.306;9.830;2022-11-18T07:49:41;6.90;99.90
21635;DHT22;10979;48.306;9.830;2022-11-18T07:52:07;7.00;99.90
21635;DHT22;10979;48.306;9.830;2022-11-18T07:54:32;7.00;99.90
21635;DHT22;10979;48.306;9.830;2022-11-18T07:56:58;6.90;99.90
21635;DHT22;10979;48.306;9.830;2022-11-18T07:59:23;6.90;99.90
21635;DHT22;10979;48.306;9.830;2022-11-18T08:01:49;6.90;99.90
21635;DHT22;10979;48.306;9.830;2022-11-18T08:04:15;7.00;99.90
21635;DHT22;10979;48.306;9.830;2022-11-18T08:06:42;7.10;99.90
21635;DHT22;10979;48.306;9.830;2022-11-18T08:09:08;7.20;99.90
21635;DHT22;10979;48.306;9.830;2022-11-18T08:11:34;7.30;99.90
21635;DHT22;10979;48.306;9.830;2022-11-18T08:14:00;7.30;99.90
21635;DHT22;10979;48.306;9.830;2022-11-18T08:16:26;7.30;99.90
21635;DHT22;10979;48.306;9.830;2022-11-18T08:18:52;7.60;99.90
21635;DHT22;10979;48.306;9.830;2022-11-18T08:21:19;7.50;99.90
21635;DHT22;10979;48.306;9.830;2022-11-18T08:23:52;7.60;99.90
21635;DHT22;10979;48.306;9.830;2022-11-18T08:26:19;7.60;99.90
21635;DHT22;10979;48.306;9.830;2022-11-18T08:28:44;7.80;99.90
21635;DHT22;10979;48.306;9.830;2022-11-18T08:31:21;7.70;99.90
21635;DHT22;10979;48.306;9.830;2022-11-18T08:34:04;7.70;99.90
21635;DHT22;10979;48.306;9.830;2022-11-18T08:36:33;7.50;99.90
21635;DHT22;10979;48.306;9.830;2022-11-18T08:39:03;7.50;99.90
21635;DHT22;10979;48.306;9.830;2022-11-18T08:41:35;7.60;99.90
21635;DHT22;10979;48.306;9.830;2022-11-18T08:44:03;7.80;99.90
21635;DHT22;10979;48.306;9.830;2022-11-18T08:46:29;8.20;99.90
21635;DHT22;10979;48.306;9.830;2022-11-18T08:48:55;8.30;99.90
21635;DHT22;10979;48.306;9.830;2022-11-18T08:51:20;8.30;99.90
21635;DHT22;10979;48.306;9.830;2022-11-18T08:53:46;8.30;99.90
21635;DHT22;10979;48.306;9.830;2022-11-18T08:56:17;8.40;99.90
21635;DHT22;10979;48.306;9.830;2022-11-18T08:58:43;8.70;99.90
21635;DHT22;10979;48.306;9.830;2022-11-18T09:01:09;9.00;99.90
21635;DHT22;10979;48.306;9.830;2022-11-18T09:03:35;9.00;99.90
21635;DHT22;10979;48.306;9.830;2022-11-18T09:06:05;9.10;99.90
21635;DHT22;10979;48.306;9.830;2022-11-18T09:08:31;8.80;99.90
21635;DHT22;10979;48.306;9.830;2022-11-18T09:10:56;8.70;99.90
21635;DHT22;10979;48.306;9.830;2022-11-18T09:13:22;8.60;99.90
21635;DHT22;10979;48.306;9.830;2022-11-18T09:15:47;8.50;99.90
21635;DHT22;10979;48.306;9.830;2022-11-18T09:18:13;8.50;99.90
21635;DHT22;10979;48.306;9.830;2022-11-18T09:20:39;8.40;99.90
21635;DHT22;10979;48.306;9.830;2022-11-18T09:23:04;8.30;99.90
21635;DHT22;10979;48.306;9.830;2022-11-18T09:25:30;8.20;99.90
21635;DHT22;10979;48.306;9.830;2022-11-18T09:27:55;8.20;99.90
21635;DHT22;10979;48.306;9.830;2022-11-18T09:30:21;8.30;99.90
21635;DHT22;10979;48.306;9.830;2022-11-18T09:32:47;8.20;99.90
21635;DHT22;10979;48.306;9.830;2022-11-18T09:35:12;8.20;99.90
21635;DHT22;10979;48.306;9.830;2022-11-18T09:37:38;8.20;99.90
21635;DHT22;10979;48.306;9.830;2022-11-18T09:40:04;8.30;99.90
21635;DHT22;10979;48.306;9.830;2022-11-18T09:45:31;8.40;99.90
21635;DHT22;10979;48.306;9.830;2022-11-18T09:47:59;8.40;99.90
21635;DHT22;10979;48.306;9.830;2022-11-18T09:50:27;8.40;99.90
21635;DHT22;10979;48.306;9.830;2022-11-18T09:55:27;8.20;99.90
21635;DHT22;10979;48.306;9.830;2022-11-18T09:57:55;8.20;99.90
21635;DHT22;10979;48.306;9.830;2022-11-18T10:00:27;8.40;99.90
21635;DHT22;10979;48.306;9.830;2022-11-18T10:08:57;8.50;99.90
21635;DHT22;10979;48.306;9.830;2022-11-18T10:24:49;8.80;99.90
21635;DHT22;10979;48.306;9.830;2022-11-18T10:27:16;8.70;99.90
21635;DHT22;10979;48.306;9.830;2022-11-18T10:29:43;8.70;99.90
21635;DHT22;10979;48.306;9.830;2022-11-18T10:32:14;8.70;99.90
21635;DHT22;10979;48.306;9.830;2022-11-18T10:34:57;8.60;99.90
21635;DHT22;10979;48.306;9.830;2022-11-18T10:37:31;8.70;99.90
21635;DHT22;10979;48.306;9.830;2022-11-18T10:40:00;8.80;99.90
21635;DHT22;10979;48.306;9.830;2022-11-18T10:42:36;8.80;99.90
21635;DHT22;10979;48.306;9.830;2022-11-18T10:48:16;8.90;99.90
21635;DHT22;10979;48.306;9.830;2022-11-18T10:50:44;8.90;99.90
21635;DHT22;10979;48.306;9.830;2022-11-18T10:56:13;8.90;99.90
21635;DHT22;10979;48.306;9.830;2022-11-18T10:58:43;9.00;99.90
21635;DHT22;10979;48.306;9.830;2022-11-18T11:01:21;8.80;99.90
21635;DHT22;10979;48.306;9.830;2022-11-18T11:04:01;8.80;99.90
21635;DHT22;10979;48.306;9.830;2022-11-18T11:06:33;8.80;99.90
21635;DHT22;10979;48.306;9.830;2022-11-18T11:09:07;8.90;99.90
21635;DHT22;10979;48.306;9.830;2022-11-18T11:11:42;8.70;99.90
21635;DHT22;10979;48.306;9.830;2022-11-18T11:14:22;8.70;99.90
21635;DHT22;10979;48.306;9.830;2022-11-18T11:17:04;8.90;99.90
21635;DHT22;10979;48.306;9.830;2022-11-18T11:19:39;8.90;99.90
21635;DHT22;10979;48.306;9.830;2022-11-18T11:22:10;8.90;99.90
21635;DHT22;10979;48.306;9.830;2022-11-18T11:24:36;8.90;99.90
21635;DHT22;10979;48.306;9.830;2022-11-18T11:27:13;8.90;99.90
21635;DHT22;10979;48.306;9.830;2022-11-18T11:38:02;8.30;99.90
21635;DHT22;10979;48.306;9.830;2022-11-18T11:41:01;8.40;99.90
21635;DHT22;10979;48.306;9.830;2022-11-18T11:43:39;8.40;99.90
21635;DHT22;10979;48.306;9.830;2022-11-18T11:51:43;8.20;99.90
21635;DHT22;10979;48.306;9.830;2022-11-18T11:59:51;8.30;99.90
21635;DHT22;10979;48.306;9.830;2022-11-18T12:07:50;8.40;99.90
21635;DHT22;10979;48.306;9.830;2022-11-18T12:16:01;8.40;99.90
21635;DHT22;10979;48.306;9.830;2022-11-18T12:24:32;8.40;99.90
21635;DHT22;10979;48.306;9.830;2022-11-18T12:29:58;8.60;99.90
21635;DHT22;10979;48.306;9.830;2022-11-18T12:32:27;8.50;99.90
21635;DHT22;10979;48.306;9.830;2022-11-18T12:46:46;8.60;99.90
21635;DHT22;10979;48.306;9.830;2022-11-18T12:51:48;8.70;99.90
21635;DHT22;10979;48.306;9.830;2022-11-18T12:54:27;8.60;99.90
21635;DHT22;10979;48.306;9.830;2022-11-18T12:56:56;8.70;99.90
21635;DHT22;10979;48.306;9.830;2022-11-18T12:59:35;8.70;99.90
21635;DHT22;10979;48.306;9.830;2022-11-18T13:02:19;8.90;99.90
21635;DHT22;10979;48.306;9.830;2022-11-18T13:05:05;8.70;99.90
21635;DHT22;10979;48.306;9.830;2022-11-18T13:07:46;8.70;99.90
21635;DHT22;10979;48.306;9.830;2022-11-18T13:10:35;8.60;99.90
21635;DHT22;10979;48.306;9.830;2022-11-18T13:13:02;8.60;99.90
21635;DHT22;10979;48.306;9.830;2022-11-18T13:15:28;8.70;99.90
21635;DHT22;10979;48.306;9.830;2022-11-18T13:18:17;8.50;99.90
21635;DHT22;10979;48.306;9.830;2022-11-18T13:20:43;8.40;99.90
21635;DHT22;10979;48.306;9.830;2022-11-18T13:23:31;8.30;99.90
21635;DHT22;10979;48.306;9.830;2022-11-18T13:26:23;8.30;99.90
21635;DHT22;10979;48.306;9.830;2022-11-18T13:31:56;8.20;99.90
21635;DHT22;10979;48.306;9.830;2022-11-18T13:34:27;8.10;99.90
21635;DHT22;10979;48.306;9.830;2022-11-18T13:36:56;8.10;99.90
21635;DHT22;10979;48.306;9.830;2022-11-18T13:39:30;8.20;99.90
21635;DHT22;10979;48.306;9.830;2022-11-18T13:42:04;8.20;99.90
21635;DHT22;10979;48.306;9.830;2022-11-18T13:44:37;8.20;99.90
21635;DHT22;10979;48.306;9.830;2022-11-18T13:52:43;8.40;99.90
21635;DHT22;10979;48.306;9.830;2022-11-18T13:55:18;8.40;99.90
21635;DHT22;10979;48.306;9.830;2022-11-18T13:57:49;8.50;99.90
21635;DHT22;10979;48.306;9.830;2022-11-18T14:00:21;8.70;99.90
21635;DHT22;10979;48.306;9.830;2022-11-18T14:03:01;8.90;99.90
21635;DHT22;10979;48.306;9.830;2022-11-18T14:05:28;9.10;99.90
21635;DHT22;10979;48.306;9.830;2022-11-18T14:10:38;9.00;99.90
21635;DHT22;10979;48.306;9.830;2022-11-18T14:13:16;9.00;99.90
21635;DHT22;10979;48.306;9.830;2022-11-18T14:15:43;8.80;99.90
21635;DHT22;10979;48.306;9.830;2022-11-18T14:18:24;8.80;99.90
21635;DHT22;10979;48.306;9.830;2022-11-18T14:20:52;9.00;99.90
21635;DHT22;10979;48.306;9.830;2022-11-18T14:23:25;8.90;99.90
21635;DHT22;10979;48.306;9.830;2022-11-18T14:25:51;9.10;99.90
21635;DHT22;10979;48.306;9.830;2022-11-18T14:31:20;9.00;99.90
21635;DHT22;10979;48.306;9.830;2022-11-18T14:34:20;8.90;99.90
21635;DHT22;10979;48.306;9.830;2022-11-18T14:36:47;8.80;99.90
21635;DHT22;10979;48.306;9.830;2022-11-18T14:39:23;8.50;99.90
21635;DHT22;10979;48.306;9.830;2022-11-18T14:41:49;8.20;99.90
21635;DHT22;10979;48.306;9.830;2022-11-18T14:44:19;8.00;99.90
21635;DHT22;10979;48.306;9.830;2022-11-18T14:46:49;7.90;99.90
21635;DHT22;10979;48.306;9.830;2022-11-18T14:49:19;7.90;99.90
21635;DHT22;10979;48.306;9.830;2022-11-18T14:51:49;7.70;99.90
21635;DHT22;10979;48.306;9.830;2022-11-18T14:54:17;7.60;99.90
21635;DHT22;10979;48.306;9.830;2022-11-18T14:56:43;7.60;99.90
21635;DHT22;10979;48.306;9.830;2022-11-18T14:59:14;7.60;99.90
21635;DHT22;10979;48.306;9.830;2022-11-18T15:01:40;7.50;99.90
21635;DHT22;10979;48.306;9.830;2022-11-18T15:04:06;7.50;99.90
21635;DHT22;10979;48.306;9.830;2022-11-18T15:06:32;7.40;99.90
21635;DHT22;10979;48.306;9.830;2022-11-18T15:08:58;7.30;99.90
21635;DHT22;10979;48.306;9.830;2022-11-18T15:11:23;7.20;99.90
21635;DHT22;10979;48.306;9.830;2022-11-18T15:13:49;7.20;99.90
21635;DHT22;10979;48.306;9.830;2022-11-18T15:16:21;7.20;99.90
21635;DHT22;10979;48.306;9.830;2022-11-18T15:18:49;7.00;99.90
21635;DHT22;10979;48.306;9.830;2022-11-18T15:21:16;6.80;99.90
21635;DHT22;10979;48.306;9.830;2022-11-18T15:23:42;6.60;99.90
21635;DHT22;10979;48.306;9.830;2022-11-18T15:26:19;6.50;99.90
21635;DHT22;10979;48.306;9.830;2022-11-18T15:28:50;6.30;99.90
21635;DHT22;10979;48.306;9.830;2022-11-18T15:31:16;6.40;99.90
21635;DHT22;10979;48.306;9.830;2022-11-18T15:33:42;6.70;99.90
21635;DHT22;10979;48.306;9.830;2022-11-18T15:36:16;6.70;99.90
21635;DHT22;10979;48.306;9.830;2022-11-18T15:38:42;6.50;99.90
21635;DHT22;10979;48.306;9.830;2022-11-18T15:41:19;6.30;99.90
21635;DHT22;10979;48.306;9.830;2022-11-18T15:43:46;6.20;99.90
21635;DHT22;10979;48.306;9.830;2022-11-18T15:46:13;6.30;99.90
21635;DHT22;10979;48.306;9.830;2022-11-18T15:48:39;6.60;99.90
21635;DHT22;10979;48.306;9.830;2022-11-18T15:51:05;6.60;99.90
21635;DHT22;10979;48.306;9.830;2022-11-18T15:53:30;6.60;99.90
21635;DHT22;10979;48.306;9.830;2022-11-18T15:58:40;6.00;99.90
21635;DHT22;10979;48.306;9.830;2022-11-18T16:01:06;5.80;99.90
21635;DHT22;10979;48.306;9.830;2022-11-18T16:03:33;5.70;99.90
21635;DHT22;10979;48.306;9.830;2022-11-18T16:05:59;5.60;99.90
21635;DHT22;10979;48.306;9.830;2022-11-18T16:08:24;5.60;99.90
21635;DHT22;10979;48.306;9.830;2022-11-18T16:10:54;5.40;99.90
21635;DHT22;10979;48.306;9.830;2022-11-18T16:13:39;5.30;99.90
21635;DHT22;10979;48.306;9.830;2022-11-18T16:16:04;5.10;99.90
21635;DHT22;10979;48.306;9.830;2022-11-18T16:18:30;5.20;99.90
21635;DHT22;10979;48.306;9.830;2022-11-18T16:20:59;5.40;99.90
21635;DHT22;10979;48.306;9.830;2022-11-18T16:23:25;5.30;99.90
21635;DHT22;10979;48.306;9.830;2022-11-18T16:25:52;5.10;99.90
21635;DHT22;10979;48.306;9.830;2022-11-18T16:28:18;5.00;99.90
21635;DHT22;10979;48.306;9.830;2022-11-18T16:30:48;5.00;99.90
21635;DHT22;10979;48.306;9.830;2022-11-18T16:33:32;4.80;99.90
21635;DHT22;10979;48.306;9.830;2022-11-18T16:35:57;4.80;99.90
21635;DHT22;10979;48.306;9.830;2022-11-18T16:38:23;4.80;99.90
21635;DHT22;10979;48.306;9.830;2022-11-18T16:40:55;4.60;99.90
21635;DHT22;10979;48.306;9.830;2022-11-18T16:43:22;4.50;99.90
21635;DHT22;10979;48.306;9.830;2022-11-18T16:45:51;4.50;99.90
21635;DHT22;10979;48.306;9.830;2022-11-18T16:48:17;4.40;99.90
21635;DHT22;10979;48.306;9.830;2022-11-18T16:50:43;4.30;99.90
21635;DHT22;10979;48.306;9.830;2022-11-18T16:53:08;4.20;99.90
21635;DHT22;10979;48.306;9.830;2022-11-18T16:55:34;4.00;99.90
21635;DHT22;10979;48.306;9.830;2022-11-18T16:57:59;3.90;99.90
21635;DHT22;10979;48.306;9.830;2022-11-18T17:00:25;3.90;99.90
21635;DHT22;10979;48.306;9.830;2022-11-18T17:02:50;3.70;99.90
21635;DHT22;10979;48.306;9.830;2022-11-18T17:05:16;3.60;99.90
21635;DHT22;10979;48.306;9.830;2022-11-18T17:07:42;3.60;99.90
21635;DHT22;10979;48.306;9.830;2022-11-18T17:10:08;3.60;99.90
21635;DHT22;10979;48.306;9.830;2022-11-18T17:12:47;3.50;99.90
21635;DHT22;10979;48.306;9.830;2022-11-18T17:15:15;3.40;99.90
21635;DHT22;10979;48.306;9.830;2022-11-18T17:17:41;3.30;99.90
21635;DHT22;10979;48.306;9.830;2022-11-18T17:20:07;3.10;99.90
21635;DHT22;10979;48.306;9.830;2022-11-18T17:22:32;3.10;99.90
21635;DHT22;10979;48.306;9.830;2022-11-18T17:24:58;3.00;99.90
21635;DHT22;10979;48.306;9.830;2022-11-18T17:27:23;2.90;99.90
21635;DHT22;10979;48.306;9.830;2022-11-18T17:29:49;2.90;99.90
21635;DHT22;10979;48.306;9.830;2022-11-18T17:32:15;2.90;99.90
21635;DHT22;10979;48.306;9.830;2022-11-18T17:34:41;2.80;99.90
21635;DHT22;10979;48.306;9.830;2022-11-18T17:37:07;3.00;99.90
21635;DHT22;10979;48.306;9.830;2022-11-18T17:39:33;3.00;99.90
21635;DHT22;10979;48.306;9.830;2022-11-18T17:42:01;2.90;99.90
21635;DHT22;10979;48.306;9.830;2022-11-18T17:44:39;3.00;99.90
21635;DHT22;10979;48.306;9.830;2022-11-18T17:47:10;3.10;99.90
21635;DHT22;10979;48.306;9.830;2022-11-18T17:49:37;3.10;99.90
21635;DHT22;10979;48.306;9.830;2022-11-18T17:52:02;3.20;99.90
21635;DHT22;10979;48.306;9.830;2022-11-18T17:54:28;3.40;99.90
21635;DHT22;10979;48.306;9.830;2022-11-18T17:56:53;3.30;99.90